createdAt,value
2022-09-28T00:01:24.929Z,21.82
2022-09-28T00:03:58.823Z,21.82
2022-09-28T00:06:31.982Z,21.00
2022-09-28T00:09:06.653Z,21.37
2022-09-28T00:11:39.210Z,21.07
2022-09-28T00:14:13.525Z,19.77
2022-09-28T00:16:46.678Z,20.80
2022-09-28T00:19:19.268Z,20.17
2022-09-28T00:21:51.655Z,20.62
2022-09-28T00:24:27.654Z,19.50
2022-09-28T00:27:01.576Z,19.62
2022-09-28T00:29:35.847Z,20.20
2022-09-28T00:32:11.855Z,19.40
2022-09-28T00:34:46.157Z,20.23
2022-09-28T00:37:22.086Z,18.70
2022-09-28T00:39:55.270Z,18.80
2022-09-28T00:42:28.015Z,19.62
2022-09-28T00:45:01.657Z,19.15
2022-09-28T00:47:52.822Z,18.90
2022-09-28T00:50:35.522Z,19.60
2022-09-28T00:53:30.918Z,17.85
2022-09-28T00:58:49.642Z,17.98
2022-09-28T01:01:22.602Z,17.25
2022-09-28T01:03:55.247Z,18.77
2022-09-28T01:06:31.214Z,19.30
2022-09-28T01:09:07.123Z,18.62
2022-09-28T01:11:40.558Z,18.35
2022-09-28T01:14:14.783Z,18.57
2022-09-28T01:17:11.132Z,17.75
2022-09-28T01:20:08.258Z,19.12
2022-09-28T01:23:17.609Z,17.95
2022-09-28T01:26:13.261Z,18.25
2022-09-28T01:28:46.266Z,17.23
2022-09-28T01:31:18.730Z,19.48
2022-09-28T01:34:01.862Z,18.23
2022-09-28T01:36:54.256Z,18.48
2022-09-28T01:39:37.133Z,16.85
2022-09-28T01:42:14.253Z,18.40
2022-09-28T01:44:47.825Z,18.45
2022-09-28T01:47:22.615Z,17.52
2022-09-28T01:50:18.219Z,18.48
2022-09-28T01:52:58.724Z,18.98
2022-09-28T01:55:45.335Z,17.65
2022-09-28T01:58:40.675Z,17.73
2022-09-28T02:03:55.616Z,17.98
2022-09-28T02:06:46.154Z,18.17
2022-09-28T02:09:34.017Z,17.70
2022-09-28T02:12:18.517Z,18.05
2022-09-28T02:14:52.292Z,18.50
2022-09-28T02:17:25.973Z,17.98
2022-09-28T02:19:58.762Z,19.45
2022-09-28T02:22:38.451Z,19.50
2022-09-28T02:25:39.700Z,17.73
2022-09-28T02:28:20.193Z,19.50
2022-09-28T02:30:54.408Z,18.60
2022-09-28T02:33:39.029Z,17.85
2022-09-28T02:38:44.427Z,18.57
2022-09-28T02:41:27.902Z,23.60
2022-09-28T02:44:48.948Z,19.62
2022-09-28T02:47:52.223Z,19.32
2022-09-28T02:50:39.421Z,18.77
2022-09-28T02:53:35.036Z,19.50
2022-09-28T02:56:42.608Z,19.65
2022-09-28T02:59:56.948Z,18.60
2022-09-28T03:02:43.027Z,19.67
2022-09-28T03:05:55.530Z,18.42
2022-09-28T03:08:36.585Z,18.82
2022-09-28T03:11:17.763Z,19.48
2022-09-28T03:13:53.410Z,21.68
2022-09-28T03:16:28.753Z,19.30
2022-09-28T03:19:02.391Z,18.67
2022-09-28T03:21:36.895Z,19.52
2022-09-28T03:24:10.831Z,18.75
2022-09-28T03:29:17.718Z,18.55
2022-09-28T03:31:51.531Z,19.15
2022-09-28T03:34:24.442Z,19.52
2022-09-28T03:36:58.834Z,20.20
2022-09-28T03:39:31.297Z,18.85
2022-09-28T03:42:04.413Z,19.27
2022-09-28T03:44:39.133Z,19.73
2022-09-28T03:47:11.582Z,20.23
2022-09-28T03:49:44.186Z,20.57
2022-09-28T03:52:17.108Z,20.43
2022-09-28T03:54:49.798Z,20.40
2022-09-28T03:57:22.467Z,19.87
2022-09-28T03:59:55.004Z,21.65
2022-09-28T04:02:28.476Z,46.02
2022-09-28T04:05:01.288Z,47.80
2022-09-28T04:07:34.900Z,22.17
2022-09-28T04:10:10.022Z,24.32
2022-09-28T04:12:42.982Z,19.73
2022-09-28T04:15:16.841Z,20.05
2022-09-28T04:17:49.568Z,21.05
2022-09-28T04:20:23.788Z,20.23
2022-09-28T04:23:07.051Z,19.55
2022-09-28T04:25:40.364Z,19.45
2022-09-28T04:28:30.836Z,18.75
2022-09-28T04:31:03.567Z,22.25
2022-09-28T04:33:36.919Z,21.02
2022-09-28T04:38:54.937Z,21.90
2022-09-28T04:41:29.037Z,22.25
2022-09-28T04:44:02.238Z,23.42
2022-09-28T04:46:35.837Z,23.30
2022-09-28T04:49:27.551Z,21.57
2022-09-28T04:52:02.907Z,21.60
2022-09-28T04:54:36.066Z,20.52
2022-09-28T04:57:08.618Z,19.55
2022-09-28T04:59:42.678Z,20.68
2022-09-28T05:02:15.935Z,20.55
2022-09-28T05:04:59.193Z,21.00
2022-09-28T05:07:36.479Z,20.75
2022-09-28T05:10:10.832Z,19.10
2022-09-28T05:12:44.773Z,20.32
2022-09-28T05:15:19.186Z,19.87
2022-09-28T05:17:54.991Z,19.60
2022-09-28T05:20:32.133Z,19.62
2022-09-28T05:23:04.678Z,19.55
2022-09-28T05:25:37.679Z,18.40
2022-09-28T05:30:45.773Z,20.12
2022-09-28T05:33:37.534Z,19.48
2022-09-28T05:36:19.067Z,18.90
2022-09-28T05:38:53.436Z,18.73
2022-09-28T05:41:26.356Z,20.37
2022-09-28T05:43:59.248Z,19.92
2022-09-28T05:46:31.804Z,19.35
2022-09-28T05:49:05.722Z,19.52
2022-09-28T05:51:39.445Z,19.90
2022-09-28T05:54:13.598Z,19.20
2022-09-28T05:56:48.833Z,19.85
2022-09-28T05:59:22.587Z,19.62
2022-09-28T06:01:56.066Z,20.30
2022-09-28T06:04:29.517Z,19.05
2022-09-28T06:07:02.009Z,19.62
2022-09-28T06:09:34.558Z,18.90
2022-09-28T06:12:08.170Z,19.45
2022-09-28T06:14:46.888Z,18.30
2022-09-28T06:17:19.304Z,18.77
2022-09-28T06:19:54.392Z,18.65
2022-09-28T06:22:32.675Z,19.87
2022-09-28T06:25:10.930Z,19.52
2022-09-28T06:27:44.865Z,19.95
2022-09-28T06:30:18.055Z,19.17
2022-09-28T06:32:56.500Z,19.67
2022-09-28T06:35:31.318Z,19.35
2022-09-28T06:38:04.633Z,18.80
2022-09-28T06:40:38.819Z,19.12
2022-09-28T06:43:16.395Z,19.32
2022-09-28T06:46:08.630Z,18.05
2022-09-28T06:48:57.580Z,18.87
2022-09-28T06:51:38.391Z,19.00
2022-09-28T06:54:12.654Z,21.27
2022-09-28T06:56:46.680Z,18.40
2022-09-28T06:59:19.674Z,19.82
2022-09-28T07:01:53.880Z,20.08
2022-09-28T07:04:28.452Z,19.00
2022-09-28T07:07:13.834Z,19.95
2022-09-28T07:09:55.261Z,19.87
2022-09-28T07:12:37.387Z,20.00
2022-09-28T07:15:12.447Z,19.12
2022-09-28T07:17:59.322Z,18.98
2022-09-28T07:20:20.961Z,20.50
2022-09-28T07:23:13.781Z,18.80
2022-09-28T07:25:41.205Z,19.27
2022-09-28T07:28:15.334Z,20.55
2022-09-28T07:33:25.204Z,19.67
2022-09-28T07:36:01.418Z,19.70
2022-09-28T07:38:35.471Z,20.43
2022-09-28T07:41:16.140Z,19.17
2022-09-28T07:43:50.510Z,19.50
2022-09-28T07:46:24.270Z,20.62
2022-09-28T07:48:58.523Z,18.27
2022-09-28T07:51:36.178Z,17.73
2022-09-28T07:54:27.657Z,18.52
2022-09-28T07:57:05.952Z,19.27
2022-09-28T07:59:40.283Z,19.25
2022-09-28T08:02:33.211Z,18.75
2022-09-28T08:05:08.395Z,22.20
2022-09-28T08:07:44.688Z,19.25
2022-09-28T08:10:17.583Z,19.07
2022-09-28T08:13:00.550Z,19.73
2022-09-28T08:15:51.776Z,20.00
2022-09-28T08:18:26.965Z,18.75
2022-09-28T08:21:18.065Z,18.12
2022-09-28T08:23:50.695Z,17.62
2022-09-28T08:26:24.677Z,17.02
2022-09-28T08:28:57.915Z,17.48
2022-09-28T08:31:41.397Z,17.32
2022-09-28T08:34:16.278Z,16.55
2022-09-28T08:37:00.764Z,16.60
2022-09-28T08:39:38.784Z,15.80
2022-09-28T08:42:21.005Z,15.35
2022-09-28T08:45:16.809Z,14.55
2022-09-28T08:48:32.763Z,14.75
2022-09-28T08:51:34.763Z,15.40
2022-09-28T08:54:20.199Z,16.20
2022-09-28T08:57:10.281Z,15.53
2022-09-28T08:59:54.790Z,14.85
2022-09-28T09:02:39.291Z,14.80
2022-09-28T09:05:27.219Z,15.25
2022-09-28T09:08:39.261Z,15.40
2022-09-28T09:11:38.749Z,14.93
2022-09-28T09:15:00.114Z,14.83
2022-09-28T09:17:53.175Z,14.45
2022-09-28T09:20:50.982Z,13.98
2022-09-28T09:23:56.652Z,17.95
2022-09-28T09:26:37.321Z,15.10
2022-09-28T09:29:53.242Z,14.85
2022-09-28T09:32:59.323Z,15.30
2022-09-28T09:36:02.730Z,14.33
2022-09-28T09:38:49.807Z,12.45
2022-09-28T09:41:59.623Z,13.28
2022-09-28T09:45:32.047Z,13.80
2022-09-28T09:48:23.021Z,12.73
2022-09-28T09:51:00.166Z,13.40
2022-09-28T09:53:43.303Z,13.08
2022-09-28T09:56:41.607Z,13.78
2022-09-28T09:59:37.812Z,13.22
2022-09-28T10:02:30.771Z,14.05
2022-09-28T10:05:22.202Z,12.20
2022-09-28T10:08:07.966Z,15.32
2022-09-28T10:10:57.826Z,13.48
2022-09-28T10:13:33.106Z,13.10
2022-09-28T10:16:08.472Z,14.00
2022-09-28T10:18:42.860Z,13.43
2022-09-28T10:21:35.908Z,13.80
2022-09-28T10:24:21.142Z,12.37
2022-09-28T10:26:55.868Z,12.35
2022-09-28T10:29:29.219Z,12.75
2022-09-28T10:32:03.074Z,11.63
2022-09-28T10:34:38.346Z,13.53
2022-09-28T10:37:15.565Z,13.45
2022-09-28T10:39:58.680Z,11.53
2022-09-28T10:42:35.815Z,12.68
2022-09-28T10:45:24.337Z,12.35
2022-09-28T10:47:56.781Z,11.57
2022-09-28T10:50:30.273Z,18.65
2022-09-28T10:53:40.120Z,13.58
2022-09-28T10:56:24.351Z,12.33
2022-09-28T10:58:59.373Z,14.00
2022-09-28T11:01:34.628Z,13.48
2022-09-28T11:04:10.885Z,13.05
2022-09-28T11:06:43.583Z,12.23
2022-09-28T11:09:31.119Z,12.80
2022-09-28T11:12:06.993Z,13.03
2022-09-28T11:14:43.819Z,12.47
2022-09-28T11:17:41.865Z,13.10
2022-09-28T11:20:33.219Z,13.25
2022-09-28T11:23:28.128Z,13.62
2022-09-28T11:26:07.924Z,13.30
2022-09-28T11:28:43.263Z,13.13
2022-09-28T11:31:18.719Z,12.90
2022-09-28T11:33:54.142Z,12.18
2022-09-28T11:37:18.653Z,13.15
2022-09-28T11:40:17.508Z,13.05
2022-09-28T11:43:24.314Z,14.18
2022-09-28T11:46:05.075Z,13.48
2022-09-28T11:48:48.974Z,13.65
2022-09-28T11:51:26.207Z,14.20
2022-09-28T11:54:14.523Z,13.80
2022-09-28T11:56:49.593Z,12.75
2022-09-28T11:59:40.299Z,14.73
2022-09-28T12:02:20.858Z,13.58
2022-09-28T12:05:15.967Z,14.25
2022-09-28T12:08:04.490Z,13.90
2022-09-28T12:11:21.781Z,14.68
2022-09-28T12:13:59.442Z,16.20
2022-09-28T12:17:04.347Z,14.20
2022-09-28T12:19:34.815Z,15.83
2022-09-28T12:22:20.807Z,14.93
2022-09-28T12:24:55.530Z,15.43
2022-09-28T12:27:45.688Z,16.15
2022-09-28T12:30:24.895Z,15.55
2022-09-28T12:33:16.343Z,15.50
2022-09-28T12:36:05.569Z,15.05
2022-09-28T12:39:14.668Z,15.75
2022-09-28T12:42:00.232Z,15.83
2022-09-28T12:44:43.977Z,15.58
2022-09-28T12:47:29.841Z,14.60
2022-09-28T12:50:39.517Z,16.15
2022-09-28T12:53:24.692Z,15.03
2022-09-28T12:56:22.094Z,16.07
2022-09-28T12:59:23.727Z,15.32
2022-09-28T13:02:42.161Z,14.85
2022-09-28T13:05:57.429Z,16.02
2022-09-28T13:08:40.442Z,15.37
2022-09-28T13:11:33.303Z,15.60
2022-09-28T13:14:29.608Z,16.07
2022-09-28T13:17:09.598Z,16.27
2022-09-28T13:20:07.629Z,15.93
2022-09-28T13:23:06.109Z,17.65
2022-09-28T13:25:47.989Z,16.48
2022-09-28T13:28:26.226Z,16.40
2022-09-28T13:33:36.407Z,17.98
2022-09-28T13:36:51.193Z,17.80
2022-09-28T13:39:51.133Z,18.52
2022-09-28T13:42:40.928Z,18.00
2022-09-28T13:45:32.724Z,18.60
2022-09-28T13:48:21.340Z,18.07
2022-09-28T13:51:10.965Z,19.52
2022-09-28T13:54:21.600Z,18.77
2022-09-28T13:56:59.083Z,21.40
2022-09-28T13:59:32.099Z,118.62
2022-09-28T14:02:32.223Z,34.50
2022-09-28T14:05:08.158Z,21.17
2022-09-28T14:07:45.786Z,21.87
2022-09-28T14:10:24.856Z,21.35
2022-09-28T14:12:58.102Z,19.82
2022-09-28T14:15:41.627Z,19.37
2022-09-28T14:18:34.047Z,21.10
2022-09-28T14:21:29.343Z,20.92
2022-09-28T14:24:33.095Z,18.77
2022-09-28T14:27:56.604Z,20.02
2022-09-28T14:30:46.326Z,19.95
2022-09-28T14:33:24.225Z,20.08
2022-09-28T14:36:29.226Z,20.88
2022-09-28T14:39:19.699Z,19.00
2022-09-28T14:41:52.945Z,19.15
2022-09-28T14:44:25.454Z,19.35
2022-09-28T14:47:12.000Z,18.67
2022-09-28T14:49:47.836Z,18.23
2022-09-28T14:52:24.692Z,18.77
2022-09-28T14:54:58.047Z,17.82
2022-09-28T14:57:31.322Z,15.98
2022-09-28T15:00:07.286Z,16.95
2022-09-28T15:02:39.880Z,16.77
2022-09-28T15:05:26.109Z,16.55
2022-09-28T15:08:00.706Z,16.07
2022-09-28T15:10:37.176Z,16.70
2022-09-28T15:13:24.073Z,16.20
2022-09-28T15:16:04.311Z,18.27
2022-09-28T15:19:29.818Z,16.70
2022-09-28T15:22:02.278Z,17.05
2022-09-28T15:24:36.389Z,18.77
2022-09-28T15:27:19.285Z,17.60
2022-09-28T15:30:02.453Z,18.07
2022-09-28T15:32:35.422Z,18.40
2022-09-28T15:35:31.378Z,19.12
2022-09-28T15:38:05.627Z,19.70
2022-09-28T15:40:43.602Z,18.10
2022-09-28T15:43:31.635Z,19.95
2022-09-28T15:46:18.605Z,18.62
2022-09-28T15:48:56.656Z,19.75
2022-09-28T15:51:29.494Z,20.10
2022-09-28T15:54:09.504Z,21.10
2022-09-28T15:59:47.217Z,20.97
2022-09-28T16:02:23.233Z,22.55
2022-09-28T16:05:01.269Z,23.75
2022-09-28T16:07:42.922Z,21.70
2022-09-28T16:10:21.420Z,24.02
2022-09-28T16:13:08.738Z,23.95
2022-09-28T16:15:41.297Z,25.40
2022-09-28T16:18:20.745Z,24.15
2022-09-28T16:23:39.128Z,26.17
2022-09-28T16:26:16.934Z,26.33
2022-09-28T16:28:52.091Z,27.52
2022-09-28T16:31:30.858Z,27.77
2022-09-28T16:34:21.334Z,27.00
2022-09-28T16:36:55.042Z,28.05
2022-09-28T16:39:28.037Z,27.17
2022-09-28T16:42:03.255Z,29.48
2022-09-28T16:44:37.084Z,28.75
2022-09-28T16:47:09.635Z,28.12
2022-09-28T16:49:42.505Z,28.32
2022-09-28T16:52:16.950Z,30.10
2022-09-28T16:55:28.982Z,29.67
2022-09-28T16:58:08.481Z,28.15
2022-09-28T17:00:46.883Z,29.42
2022-09-28T17:03:20.850Z,31.45
2022-09-28T17:05:56.387Z,30.15
2022-09-28T17:08:29.480Z,28.25
2022-09-28T17:11:16.915Z,28.65
2022-09-28T17:13:40.159Z,28.42
2022-09-28T17:16:18.113Z,28.35
2022-09-28T17:18:51.065Z,25.10
2022-09-28T17:21:24.060Z,20.52
2022-09-28T17:23:56.732Z,16.45
2022-09-28T17:26:35.014Z,16.93
2022-09-28T17:29:09.353Z,11.48
2022-09-28T17:31:45.870Z,10.25
2022-09-28T17:34:20.219Z,12.68
2022-09-28T17:36:53.862Z,9.25
2022-09-28T17:39:39.608Z,6.70
2022-09-28T17:42:12.740Z,6.67
2022-09-28T17:44:47.130Z,6.08
2022-09-28T17:47:24.481Z,15.53
2022-09-28T17:49:58.931Z,12.10
2022-09-28T17:52:32.492Z,8.65
2022-09-28T17:55:10.781Z,6.33
2022-09-28T17:57:44.097Z,6.05
2022-09-28T18:00:19.401Z,5.92
2022-09-28T18:02:53.223Z,15.05
2022-09-28T18:05:27.233Z,8.10
2022-09-28T18:10:32.908Z,10.13
2022-09-28T18:13:06.688Z,10.13
2022-09-28T18:15:39.403Z,8.28
2022-09-28T18:18:13.276Z,8.55
2022-09-28T18:20:46.391Z,6.20
2022-09-28T18:23:21.101Z,5.30
2022-09-28T18:25:54.260Z,6.30
2022-09-28T18:28:27.665Z,5.53
2022-09-28T18:31:00.585Z,9.18
2022-09-28T18:33:34.839Z,5.90
2022-09-28T18:36:10.344Z,9.70
2022-09-28T18:41:17.226Z,11.97
2022-09-28T18:43:53.308Z,5.75
2022-09-28T18:46:27.751Z,6.60
2022-09-28T18:49:01.229Z,6.60
2022-09-28T18:51:34.346Z,5.70
2022-09-28T18:54:08.408Z,5.78
2022-09-28T18:56:45.145Z,5.30
2022-09-28T18:59:19.184Z,6.03
2022-09-28T19:01:53.139Z,5.20
2022-09-28T19:04:31.400Z,4.80
2022-09-28T19:09:40.041Z,5.28
2022-09-28T19:12:16.333Z,5.95
2022-09-28T19:14:49.487Z,8.58
2022-09-28T19:17:22.719Z,6.40
2022-09-28T19:19:57.389Z,6.37
2022-09-28T19:22:31.504Z,5.45
2022-09-28T19:25:05.022Z,5.60
2022-09-28T19:27:38.015Z,5.85
2022-09-28T19:30:12.313Z,5.40
2022-09-28T19:32:47.820Z,6.45
2022-09-28T19:35:20.432Z,5.73
2022-09-28T19:37:53.079Z,6.35
2022-09-28T19:40:25.976Z,6.28
2022-09-28T19:43:00.074Z,5.28
2022-09-28T19:45:32.906Z,5.17
2022-09-28T19:48:05.451Z,5.47
2022-09-28T19:50:40.063Z,4.90
2022-09-28T19:53:13.960Z,5.65
2022-09-28T19:56:09.387Z,6.05
2022-09-28T19:58:42.802Z,5.75
2022-09-28T20:01:15.356Z,10.98
2022-09-28T20:03:47.947Z,6.08
2022-09-28T20:06:21.427Z,5.55
2022-09-28T20:08:54.473Z,5.40
2022-09-28T20:11:27.945Z,5.87
2022-09-28T20:14:02.193Z,5.12
2022-09-28T20:16:36.871Z,5.08
2022-09-28T20:19:10.311Z,5.45
2022-09-28T20:21:46.090Z,5.30
2022-09-28T20:24:18.717Z,5.47
2022-09-28T20:26:51.845Z,5.28
2022-09-28T20:29:24.618Z,5.00
2022-09-28T20:31:57.930Z,6.03
2022-09-28T20:34:31.878Z,6.30
2022-09-28T20:37:04.678Z,5.28
2022-09-28T20:39:40.433Z,5.60
2022-09-28T20:42:11.875Z,5.60
2022-09-28T20:44:45.516Z,5.12
2022-09-28T20:47:19.479Z,5.28
2022-09-28T20:49:52.170Z,6.20
2022-09-28T20:52:25.212Z,6.00
2022-09-28T20:54:59.202Z,5.55
2022-09-28T20:57:31.949Z,5.92
2022-09-28T21:00:05.312Z,6.00
2022-09-28T21:02:37.987Z,5.70
2022-09-28T21:05:11.072Z,6.25
2022-09-28T21:07:45.222Z,6.08
2022-09-28T21:10:17.902Z,6.08
2022-09-28T21:12:52.910Z,5.72
2022-09-28T21:15:25.501Z,5.72
2022-09-28T21:17:58.248Z,6.17
2022-09-28T21:20:31.685Z,5.92
2022-09-28T21:23:04.131Z,5.58
2022-09-28T21:25:36.484Z,6.03
2022-09-28T21:28:09.757Z,5.55
2022-09-28T21:31:04.572Z,5.47
2022-09-28T21:33:37.633Z,6.35
2022-09-28T21:36:12.207Z,5.70
2022-09-28T21:38:44.794Z,5.75
2022-09-28T21:41:17.447Z,5.47
2022-09-28T21:43:50.200Z,6.15
2022-09-28T21:46:23.071Z,5.65
2022-09-28T21:48:55.964Z,6.00
2022-09-28T21:51:28.957Z,6.05
2022-09-28T21:54:01.366Z,5.70
2022-09-28T21:56:35.423Z,5.97
2022-09-28T22:01:43.003Z,5.92
2022-09-28T22:04:15.773Z,6.25
2022-09-28T22:06:48.498Z,5.45
2022-09-28T22:09:22.701Z,5.85
2022-09-28T22:11:55.168Z,5.87
2022-09-28T22:14:27.783Z,5.87
2022-09-28T22:17:00.271Z,7.15
2022-09-28T22:19:32.851Z,6.35
2022-09-28T22:22:05.839Z,6.20
2022-09-28T22:24:38.749Z,6.45
2022-09-28T22:27:11.294Z,6.30
2022-09-28T22:29:44.786Z,5.95
2022-09-28T22:32:17.118Z,6.58
2022-09-28T22:34:50.714Z,6.65
2022-09-28T22:37:23.083Z,6.80
2022-09-28T22:39:55.765Z,6.90
2022-09-28T22:42:29.676Z,6.37
2022-09-28T22:45:02.740Z,5.95
2022-09-28T22:47:35.763Z,6.90
2022-09-28T22:50:08.959Z,6.95
2022-09-28T22:52:41.776Z,6.20
2022-09-28T22:55:14.409Z,5.83
2022-09-28T22:57:47.277Z,6.58
2022-09-28T23:00:19.979Z,6.42
2022-09-28T23:02:53.781Z,6.97
2022-09-28T23:05:26.341Z,6.17
2022-09-28T23:07:59.010Z,6.35
2022-09-28T23:10:31.677Z,6.17
2022-09-28T23:13:04.084Z,8.90
2022-09-28T23:15:36.585Z,6.15
2022-09-28T23:18:09.040Z,6.42
2022-09-28T23:23:16.210Z,6.72
2022-09-28T23:25:48.544Z,6.00
2022-09-28T23:28:22.061Z,5.97
2022-09-28T23:30:55.597Z,5.75
2022-09-28T23:33:28.380Z,5.92
2022-09-28T23:36:02.851Z,6.15
2022-09-28T23:38:36.657Z,6.22
2022-09-28T23:41:09.872Z,6.12
2022-09-28T23:43:43.660Z,6.00
2022-09-28T23:46:20.505Z,5.80
2022-09-28T23:48:51.479Z,6.25
2022-09-28T23:51:24.529Z,5.33
2022-09-28T23:53:57.014Z,5.72
2022-09-28T23:56:29.779Z,5.40
2022-09-28T23:59:02.911Z,5.55
